sensor_id;sensor_type;location;lat;lon;timestamp;temperature;humidity
3208;DHT22;1616;52.394;9.756;2022-08-07T00:01:04;15.50;1.00
3208;DHT22;1616;52.394;9.756;2022-08-07T00:03:31;15.50;1.00
3208;DHT22;1616;52.394;9.756;2022-08-07T00:05:56;15.40;1.00
3208;DHT22;1616;52.394;9.756;2022-08-07T00:08:22;15.40;1.00
3208;DHT22;1616;52.394;9.756;2022-08-07T00:10:48;15.40;1.00
3208;DHT22;1616;52.394;9.756;2022-08-07T00:13:15;15.30;1.00
3208;DHT22;1616;52.394;9.756;2022-08-07T00:15:41;15.20;1.00
3208;DHT22;1616;52.394;9.756;2022-08-07T00:18:07;15.20;1.00
3208;DHT22;1616;52.394;9.756;2022-08-07T00:20:35;15.20;1.00
3208;DHT22;1616;52.394;9.756;2022-08-07T00:23:02;15.20;1.00
3208;DHT22;1616;52.394;9.756;2022-08-07T00:25:28;15.20;1.00
3208;DHT22;1616;52.394;9.756;2022-08-07T00:27:53;15.20;1.00
3208;DHT22;1616;52.394;9.756;2022-08-07T00:30:20;15.20;1.00
3208;DHT22;1616;52.394;9.756;2022-08-07T00:32:47;15.20;1.00
3208;DHT22;1616;52.394;9.756;2022-08-07T00:35:14;14.30;1.00
3208;DHT22;1616;52.394;9.756;2022-08-07T00:37:40;15.10;1.00
3208;DHT22;1616;52.394;9.756;2022-08-07T00:40:06;15.10;1.00
3208;DHT22;1616;52.394;9.756;2022-08-07T00:42:34;15.10;1.00
3208;DHT22;1616;52.394;9.756;2022-08-07T00:44:59;15.10;1.00
3208;DHT22;1616;52.394;9.756;2022-08-07T00:47:25;15.00;1.00
3208;DHT22;1616;52.394;9.756;2022-08-07T00:49:51;15.00;1.00
3208;DHT22;1616;52.394;9.756;2022-08-07T00:52:17;15.00;1.00
3208;DHT22;1616;52.394;9.756;2022-08-07T00:54:42;14.90;1.00
3208;DHT22;1616;52.394;9.756;2022-08-07T00:57:08;14.90;1.00
3208;DHT22;1616;52.394;9.756;2022-08-07T00:59:36;14.90;1.00
3208;DHT22;1616;52.394;9.756;2022-08-07T01:02:06;14.80;1.00
3208;DHT22;1616;52.394;9.756;2022-08-07T01:04:32;14.80;1.00
3208;DHT22;1616;52.394;9.756;2022-08-07T01:06:58;14.80;1.00
3208;DHT22;1616;52.394;9.756;2022-08-07T01:09:24;14.70;1.00
3208;DHT22;1616;52.394;9.756;2022-08-07T01:11:51;14.70;1.00
3208;DHT22;1616;52.394;9.756;2022-08-07T01:14:19;14.60;1.00
3208;DHT22;1616;52.394;9.756;2022-08-07T01:16:44;14.50;1.00
3208;DHT22;1616;52.394;9.756;2022-08-07T01:19:11;14.60;1.00
3208;DHT22;1616;52.394;9.756;2022-08-07T01:21:37;14.50;1.00
3208;DHT22;1616;52.394;9.756;2022-08-07T01:24:03;14.40;1.00
3208;DHT22;1616;52.394;9.756;2022-08-07T01:26:30;14.30;1.00
3208;DHT22;1616;52.394;9.756;2022-08-07T01:28:56;14.20;1.00
3208;DHT22;1616;52.394;9.756;2022-08-07T01:31:22;14.30;1.00
3208;DHT22;1616;52.394;9.756;2022-08-07T01:33:58;14.20;1.00
3208;DHT22;1616;52.394;9.756;2022-08-07T01:36:24;14.20;1.00
3208;DHT22;1616;52.394;9.756;2022-08-07T01:38:50;14.10;1.00
3208;DHT22;1616;52.394;9.756;2022-08-07T01:41:17;14.10;1.00
3208;DHT22;1616;52.394;9.756;2022-08-07T01:43:45;14.10;1.00
3208;DHT22;1616;52.394;9.756;2022-08-07T01:46:11;14.10;1.00
3208;DHT22;1616;52.394;9.756;2022-08-07T01:48:37;14.10;1.00
3208;DHT22;1616;52.394;9.756;2022-08-07T01:51:07;14.10;1.00
3208;DHT22;1616;52.394;9.756;2022-08-07T01:53:35;14.10;1.00
3208;DHT22;1616;52.394;9.756;2022-08-07T01:56:10;14.10;1.00
3208;DHT22;1616;52.394;9.756;2022-08-07T01:58:43;14.00;1.00
3208;DHT22;1616;52.394;9.756;2022-08-07T02:01:13;14.10;1.00
3208;DHT22;1616;52.394;9.756;2022-08-07T02:03:42;14.10;1.00
3208;DHT22;1616;52.394;9.756;2022-08-07T02:06:12;14.10;1.00
3208;DHT22;1616;52.394;9.756;2022-08-07T02:08:41;14.10;1.00
3208;DHT22;1616;52.394;9.756;2022-08-07T02:11:10;14.10;1.00
3208;DHT22;1616;52.394;9.756;2022-08-07T02:13:36;14.00;1.00
3208;DHT22;1616;52.394;9.756;2022-08-07T02:16:05;14.00;1.00
3208;DHT22;1616;52.394;9.756;2022-08-07T02:18:33;13.90;1.00
3208;DHT22;1616;52.394;9.756;2022-08-07T02:21:02;13.90;1.00
3208;DHT22;1616;52.394;9.756;2022-08-07T02:23:29;13.90;1.00
3208;DHT22;1616;52.394;9.756;2022-08-07T02:25:58;13.80;1.00
3208;DHT22;1616;52.394;9.756;2022-08-07T02:28:26;13.80;1.00
3208;DHT22;1616;52.394;9.756;2022-08-07T02:30:54;13.80;1.00
3208;DHT22;1616;52.394;9.756;2022-08-07T02:33:23;13.80;1.00
3208;DHT22;1616;52.394;9.756;2022-08-07T02:35:50;13.90;1.00
3208;DHT22;1616;52.394;9.756;2022-08-07T02:38:18;13.80;1.00
3208;DHT22;1616;52.394;9.756;2022-08-07T02:40:45;13.80;1.00
3208;DHT22;1616;52.394;9.756;2022-08-07T02:43:11;13.80;1.00
3208;DHT22;1616;52.394;9.756;2022-08-07T02:45:39;13.80;1.00
3208;DHT22;1616;52.394;9.756;2022-08-07T02:48:07;13.80;1.00
3208;DHT22;1616;52.394;9.756;2022-08-07T02:50:35;13.70;1.00
3208;DHT22;1616;52.394;9.756;2022-08-07T02:53:07;13.70;1.00
3208;DHT22;1616;52.394;9.756;2022-08-07T02:55:36;13.60;1.00
3208;DHT22;1616;52.394;9.756;2022-08-07T02:58:05;13.60;1.00
3208;DHT22;1616;52.394;9.756;2022-08-07T03:00:33;13.50;1.00
3208;DHT22;1616;52.394;9.756;2022-08-07T03:03:00;13.50;1.00
3208;DHT22;1616;52.394;9.756;2022-08-07T03:05:28;13.50;1.00
3208;DHT22;1616;52.394;9.756;2022-08-07T03:07:55;13.40;1.00
3208;DHT22;1616;52.394;9.756;2022-08-07T03:10:21;13.50;1.00
3208;DHT22;1616;52.394;9.756;2022-08-07T03:12:47;13.40;1.00
3208;DHT22;1616;52.394;9.756;2022-08-07T03:15:15;13.40;1.00
3208;DHT22;1616;52.394;9.756;2022-08-07T03:17:41;13.40;1.00
3208;DHT22;1616;52.394;9.756;2022-08-07T03:20:08;13.30;1.00
3208;DHT22;1616;52.394;9.756;2022-08-07T03:22:35;13.30;1.00
3208;DHT22;1616;52.394;9.756;2022-08-07T03:25:02;13.20;1.00
3208;DHT22;1616;52.394;9.756;2022-08-07T03:27:28;13.20;1.00
3208;DHT22;1616;52.394;9.756;2022-08-07T03:29:55;13.20;1.00
3208;DHT22;1616;52.394;9.756;2022-08-07T03:32:33;13.10;1.00
3208;DHT22;1616;52.394;9.756;2022-08-07T03:35:03;13.10;1.00
3208;DHT22;1616;52.394;9.756;2022-08-07T03:37:30;13.20;1.00
3208;DHT22;1616;52.394;9.756;2022-08-07T03:39:57;13.20;1.00
3208;DHT22;1616;52.394;9.756;2022-08-07T03:42:24;13.20;1.00
3208;DHT22;1616;52.394;9.756;2022-08-07T03:44:51;13.20;1.00
3208;DHT22;1616;52.394;9.756;2022-08-07T03:47:17;13.20;1.00
3208;DHT22;1616;52.394;9.756;2022-08-07T03:49:43;13.20;1.00
3208;DHT22;1616;52.394;9.756;2022-08-07T03:52:10;13.20;1.00
3208;DHT22;1616;52.394;9.756;2022-08-07T03:54:37;13.20;1.00
3208;DHT22;1616;52.394;9.756;2022-08-07T03:57:03;13.20;1.00
3208;DHT22;1616;52.394;9.756;2022-08-07T03:59:30;13.20;1.00
3208;DHT22;1616;52.394;9.756;2022-08-07T04:01:57;13.20;1.00
3208;DHT22;1616;52.394;9.756;2022-08-07T04:04:23;13.30;1.00
3208;DHT22;1616;52.394;9.756;2022-08-07T04:06:50;13.20;1.00
3208;DHT22;1616;52.394;9.756;2022-08-07T04:09:15;13.20;1.00
3208;DHT22;1616;52.394;9.756;2022-08-07T04:11:43;13.20;1.00
3208;DHT22;1616;52.394;9.756;2022-08-07T04:14:10;13.30;1.00
3208;DHT22;1616;52.394;9.756;2022-08-07T04:16:36;13.30;1.00
3208;DHT22;1616;52.394;9.756;2022-08-07T04:19:03;13.40;1.00
3208;DHT22;1616;52.394;9.756;2022-08-07T04:21:30;13.50;1.00
3208;DHT22;1616;52.394;9.756;2022-08-07T04:23:56;13.60;1.00
3208;DHT22;1616;52.394;9.756;2022-08-07T04:26:22;13.80;1.40
3208;DHT22;1616;52.394;9.756;2022-08-07T04:28:48;14.30;2.00
3208;DHT22;1616;52.394;9.756;2022-08-07T04:31:15;14.80;1.70
3208;DHT22;1616;52.394;9.756;2022-08-07T04:33:41;15.30;1.20
3208;DHT22;1616;52.394;9.756;2022-08-07T04:36:07;15.80;1.00
3208;DHT22;1616;52.394;9.756;2022-08-07T04:38:34;16.40;1.00
3208;DHT22;1616;52.394;9.756;2022-08-07T04:41:01;16.90;1.00
3208;DHT22;1616;52.394;9.756;2022-08-07T04:43:36;17.40;1.00
3208;DHT22;1616;52.394;9.756;2022-08-07T04:46:21;17.90;1.00
3208;DHT22;1616;52.394;9.756;2022-08-07T04:49:08;18.30;1.00
3208;DHT22;1616;52.394;9.756;2022-08-07T04:57:26;20.10;1.00
3208;DHT22;1616;52.394;9.756;2022-08-07T05:00:04;20.70;1.00
3208;DHT22;1616;52.394;9.756;2022-08-07T05:02:55;21.40;1.00
3208;DHT22;1616;52.394;9.756;2022-08-07T05:05:31;22.10;1.00
3208;DHT22;1616;52.394;9.756;2022-08-07T05:08:27;22.60;1.00
3208;DHT22;1616;52.394;9.756;2022-08-07T05:11:09;23.20;1.00
3208;DHT22;1616;52.394;9.756;2022-08-07T05:13:42;23.60;1.00
3208;DHT22;1616;52.394;9.756;2022-08-07T05:16:13;23.90;1.00
3208;DHT22;1616;52.394;9.756;2022-08-07T05:18:44;24.30;1.00
3208;DHT22;1616;52.394;9.756;2022-08-07T05:21:12;24.70;1.00
3208;DHT22;1616;52.394;9.756;2022-08-07T05:23:44;24.90;1.00
3208;DHT22;1616;52.394;9.756;2022-08-07T05:26:16;25.20;1.00
3208;DHT22;1616;52.394;9.756;2022-08-07T05:28:44;25.50;1.00
3208;DHT22;1616;52.394;9.756;2022-08-07T05:31:11;25.70;1.00
3208;DHT22;1616;52.394;9.756;2022-08-07T05:33:38;26.00;1.00
3208;DHT22;1616;52.394;9.756;2022-08-07T05:36:06;26.20;1.00
3208;DHT22;1616;52.394;9.756;2022-08-07T05:38:33;26.40;1.00
3208;DHT22;1616;52.394;9.756;2022-08-07T05:41:00;26.70;1.00
3208;DHT22;1616;52.394;9.756;2022-08-07T05:43:27;27.00;1.00
3208;DHT22;1616;52.394;9.756;2022-08-07T05:45:54;27.20;1.00
3208;DHT22;1616;52.394;9.756;2022-08-07T05:48:20;27.50;1.00
3208;DHT22;1616;52.394;9.756;2022-08-07T05:50:46;27.80;1.00
3208;DHT22;1616;52.394;9.756;2022-08-07T05:53:12;28.00;1.00
3208;DHT22;1616;52.394;9.756;2022-08-07T05:55:39;28.10;1.00
3208;DHT22;1616;52.394;9.756;2022-08-07T05:58:05;28.30;1.00
3208;DHT22;1616;52.394;9.756;2022-08-07T06:00:33;28.40;1.00
3208;DHT22;1616;52.394;9.756;2022-08-07T06:03:02;28.60;1.00
3208;DHT22;1616;52.394;9.756;2022-08-07T06:05:30;28.80;1.00
3208;DHT22;1616;52.394;9.756;2022-08-07T06:08:00;30.20;1.00
3208;DHT22;1616;52.394;9.756;2022-08-07T06:10:27;29.10;1.00
3208;DHT22;1616;52.394;9.756;2022-08-07T06:12:54;29.20;1.00
3208;DHT22;1616;52.394;9.756;2022-08-07T06:15:21;29.30;1.00
3208;DHT22;1616;52.394;9.756;2022-08-07T06:17:47;29.40;1.00
3208;DHT22;1616;52.394;9.756;2022-08-07T06:20:14;29.50;1.00
3208;DHT22;1616;52.394;9.756;2022-08-07T06:22:41;29.60;1.00
3208;DHT22;1616;52.394;9.756;2022-08-07T06:25:08;29.50;1.00
3208;DHT22;1616;52.394;9.756;2022-08-07T06:27:34;29.40;1.00
3208;DHT22;1616;52.394;9.756;2022-08-07T06:30:00;28.90;1.00
3208;DHT22;1616;52.394;9.756;2022-08-07T06:32:26;29.40;1.00
3208;DHT22;1616;52.394;9.756;2022-08-07T06:34:53;29.50;1.00
3208;DHT22;1616;52.394;9.756;2022-08-07T06:37:19;29.60;1.00
3208;DHT22;1616;52.394;9.756;2022-08-07T06:39:44;29.70;1.00
3208;DHT22;1616;52.394;9.756;2022-08-07T06:42:42;29.90;1.00
3208;DHT22;1616;52.394;9.756;2022-08-07T06:45:13;30.20;1.00
3208;DHT22;1616;52.394;9.756;2022-08-07T06:47:40;30.50;1.00
3208;DHT22;1616;52.394;9.756;2022-08-07T06:50:06;30.70;1.00
3208;DHT22;1616;52.394;9.756;2022-08-07T06:52:34;30.90;1.00
3208;DHT22;1616;52.394;9.756;2022-08-07T06:55:05;31.00;1.00
3208;DHT22;1616;52.394;9.756;2022-08-07T06:57:33;31.10;1.00
3208;DHT22;1616;52.394;9.756;2022-08-07T07:00:00;31.20;1.00
3208;DHT22;1616;52.394;9.756;2022-08-07T07:02:27;31.20;1.00
3208;DHT22;1616;52.394;9.756;2022-08-07T07:04:54;31.30;1.00
3208;DHT22;1616;52.394;9.756;2022-08-07T07:07:19;31.30;1.00
3208;DHT22;1616;52.394;9.756;2022-08-07T07:09:47;31.50;1.00
3208;DHT22;1616;52.394;9.756;2022-08-07T07:12:21;31.50;1.00
3208;DHT22;1616;52.394;9.756;2022-08-07T07:17:23;31.70;1.00
3208;DHT22;1616;52.394;9.756;2022-08-07T07:19:54;31.70;1.00
3208;DHT22;1616;52.394;9.756;2022-08-07T07:22:23;31.90;1.00
3208;DHT22;1616;52.394;9.756;2022-08-07T07:24:49;32.10;1.00
3208;DHT22;1616;52.394;9.756;2022-08-07T07:27:16;32.20;1.00
3208;DHT22;1616;52.394;9.756;2022-08-07T07:29:48;32.40;1.00
3208;DHT22;1616;52.394;9.756;2022-08-07T07:32:18;32.60;1.00
3208;DHT22;1616;52.394;9.756;2022-08-07T07:34:47;32.70;1.00
3208;DHT22;1616;52.394;9.756;2022-08-07T07:37:14;32.70;1.00
3208;DHT22;1616;52.394;9.756;2022-08-07T07:39:41;32.80;1.00
3208;DHT22;1616;52.394;9.756;2022-08-07T07:42:09;32.80;1.00
3208;DHT22;1616;52.394;9.756;2022-08-07T07:44:38;32.70;1.00
3208;DHT22;1616;52.394;9.756;2022-08-07T07:47:07;32.60;1.00
3208;DHT22;1616;52.394;9.756;2022-08-07T07:49:35;32.60;1.00
3208;DHT22;1616;52.394;9.756;2022-08-07T07:52:03;32.70;1.00
3208;DHT22;1616;52.394;9.756;2022-08-07T07:54:29;32.60;1.00
3208;DHT22;1616;52.394;9.756;2022-08-07T07:56:58;32.70;1.00
3208;DHT22;1616;52.394;9.756;2022-08-07T07:59:25;32.70;1.00
3208;DHT22;1616;52.394;9.756;2022-08-07T08:01:53;32.70;1.00
3208;DHT22;1616;52.394;9.756;2022-08-07T08:04:19;32.70;1.00
3208;DHT22;1616;52.394;9.756;2022-08-07T08:06:46;32.80;1.00
3208;DHT22;1616;52.394;9.756;2022-08-07T08:09:16;32.80;1.00
3208;DHT22;1616;52.394;9.756;2022-08-07T08:11:44;32.80;1.00
3208;DHT22;1616;52.394;9.756;2022-08-07T08:14:10;32.90;1.00
3208;DHT22;1616;52.394;9.756;2022-08-07T08:16:38;33.10;1.00
3208;DHT22;1616;52.394;9.756;2022-08-07T08:19:15;33.20;1.00
3208;DHT22;1616;52.394;9.756;2022-08-07T08:21:46;33.30;1.00
3208;DHT22;1616;52.394;9.756;2022-08-07T08:24:35;33.30;1.00
3208;DHT22;1616;52.394;9.756;2022-08-07T08:27:21;33.20;1.00
3208;DHT22;1616;52.394;9.756;2022-08-07T08:29:55;33.40;1.00
3208;DHT22;1616;52.394;9.756;2022-08-07T08:32:24;33.60;1.00
3208;DHT22;1616;52.394;9.756;2022-08-07T08:34:53;33.70;1.00
3208;DHT22;1616;52.394;9.756;2022-08-07T08:37:20;33.80;1.00
3208;DHT22;1616;52.394;9.756;2022-08-07T08:39:46;33.90;1.00
3208;DHT22;1616;52.394;9.756;2022-08-07T08:42:40;33.90;1.00
3208;DHT22;1616;52.394;9.756;2022-08-07T08:45:23;33.80;1.00
3208;DHT22;1616;52.394;9.756;2022-08-07T08:50:49;33.70;1.00
3208;DHT22;1616;52.394;9.756;2022-08-07T08:53:29;33.80;1.00
3208;DHT22;1616;52.394;9.756;2022-08-07T08:56:20;33.90;1.00
3208;DHT22;1616;52.394;9.756;2022-08-07T08:59:08;34.20;1.00
3208;DHT22;1616;52.394;9.756;2022-08-07T09:07:31;34.90;1.00
3208;DHT22;1616;52.394;9.756;2022-08-07T09:10:06;35.30;1.00
3208;DHT22;1616;52.394;9.756;2022-08-07T09:12:54;35.50;1.00
3208;DHT22;1616;52.394;9.756;2022-08-07T09:21:18;35.80;1.00
3208;DHT22;1616;52.394;9.756;2022-08-07T09:24:01;35.80;1.00
3208;DHT22;1616;52.394;9.756;2022-08-07T09:26:48;35.80;1.00
3208;DHT22;1616;52.394;9.756;2022-08-07T09:29:33;35.70;1.00
3208;DHT22;1616;52.394;9.756;2022-08-07T09:39:11;35.50;1.00
3208;DHT22;1616;52.394;9.756;2022-08-07T09:44:02;33.70;1.00
3208;DHT22;1616;52.394;9.756;2022-08-07T09:46:41;32.90;1.00
3208;DHT22;1616;52.394;9.756;2022-08-07T09:50:03;32.80;1.00
3208;DHT22;1616;52.394;9.756;2022-08-07T09:52:52;33.40;1.00
3208;DHT22;1616;52.394;9.756;2022-08-07T10:04:20;36.00;1.00
3208;DHT22;1616;52.394;9.756;2022-08-07T10:12:04;36.90;1.00
3208;DHT22;1616;52.394;9.756;2022-08-07T10:17:52;37.80;1.00
3208;DHT22;1616;52.394;9.756;2022-08-07T10:29:23;38.20;1.00
3208;DHT22;1616;52.394;9.756;2022-08-07T10:32:24;38.40;1.00
3208;DHT22;1616;52.394;9.756;2022-08-07T10:43:08;38.20;1.00
3208;DHT22;1616;52.394;9.756;2022-08-07T10:45:37;38.30;1.00
3208;DHT22;1616;52.394;9.756;2022-08-07T10:50:45;38.40;1.00
3208;DHT22;1616;52.394;9.756;2022-08-07T10:53:24;38.50;1.00
3208;DHT22;1616;52.394;9.756;2022-08-07T10:56:00;38.60;1.00
3208;DHT22;1616;52.394;9.756;2022-08-07T11:09:49;39.50;1.00
3208;DHT22;1616;52.394;9.756;2022-08-07T11:12:22;39.50;1.00
3208;DHT22;1616;52.394;9.756;2022-08-07T11:14:56;39.70;1.00
3208;DHT22;1616;52.394;9.756;2022-08-07T11:17:29;39.90;1.00
3208;DHT22;1616;52.394;9.756;2022-08-07T11:20:02;39.60;1.00
3208;DHT22;1616;52.394;9.756;2022-08-07T11:22:47;38.70;1.00
3208;DHT22;1616;52.394;9.756;2022-08-07T11:25:24;37.60;1.00
3208;DHT22;1616;52.394;9.756;2022-08-07T11:33:33;35.20;1.00
3208;DHT22;1616;52.394;9.756;2022-08-07T11:41:56;32.80;1.00
3208;DHT22;1616;52.394;9.756;2022-08-07T11:44:48;32.20;1.00
3208;DHT22;1616;52.394;9.756;2022-08-07T12:04:16;35.60;1.00
3208;DHT22;1616;52.394;9.756;2022-08-07T12:06:48;36.60;1.00
3208;DHT22;1616;52.394;9.756;2022-08-07T12:09:27;37.30;1.00
3208;DHT22;1616;52.394;9.756;2022-08-07T12:12:23;37.60;1.00
3208;DHT22;1616;52.394;9.756;2022-08-07T12:17:34;36.10;1.00
3208;DHT22;1616;52.394;9.756;2022-08-07T12:20:09;35.10;1.00
3208;DHT22;1616;52.394;9.756;2022-08-07T12:26:00;33.10;1.00
3208;DHT22;1616;52.394;9.756;2022-08-07T12:34:04;32.30;1.00
3208;DHT22;1616;52.394;9.756;2022-08-07T12:36:32;32.20;1.00
3208;DHT22;1616;52.394;9.756;2022-08-07T12:38:58;32.00;1.00
3208;DHT22;1616;52.394;9.756;2022-08-07T12:41:26;31.50;1.00
3208;DHT22;1616;52.394;9.756;2022-08-07T12:43:55;31.10;1.00
3208;DHT22;1616;52.394;9.756;2022-08-07T12:46:39;30.70;1.00
3208;DHT22;1616;52.394;9.756;2022-08-07T12:52:11;29.90;1.00
3208;DHT22;1616;52.394;9.756;2022-08-07T12:54:52;29.60;1.00
3208;DHT22;1616;52.394;9.756;2022-08-07T12:57:22;29.40;1.00
3208;DHT22;1616;52.394;9.756;2022-08-07T12:59:52;29.10;1.00
3208;DHT22;1616;52.394;9.756;2022-08-07T13:08:16;28.40;1.00
3208;DHT22;1616;52.394;9.756;2022-08-07T13:11:07;28.20;1.00
3208;DHT22;1616;52.394;9.756;2022-08-07T13:16:31;27.90;1.00
3208;DHT22;1616;52.394;9.756;2022-08-07T13:19:15;27.70;1.00
3208;DHT22;1616;52.394;9.756;2022-08-07T13:21:45;27.80;1.00
3208;DHT22;1616;52.394;9.756;2022-08-07T13:24:22;27.90;1.00
3208;DHT22;1616;52.394;9.756;2022-08-07T13:27:30;28.00;1.00
3208;DHT22;1616;52.394;9.756;2022-08-07T13:30:09;28.20;1.00
3208;DHT22;1616;52.394;9.756;2022-08-07T13:33:20;28.50;1.00
3208;DHT22;1616;52.394;9.756;2022-08-07T13:38:40;29.10;1.00
3208;DHT22;1616;52.394;9.756;2022-08-07T13:41:24;29.40;1.00
3208;DHT22;1616;52.394;9.756;2022-08-07T13:43:53;29.50;1.00
3208;DHT22;1616;52.394;9.756;2022-08-07T13:46:21;29.60;1.00
3208;DHT22;1616;52.394;9.756;2022-08-07T13:48:53;29.50;1.00
3208;DHT22;1616;52.394;9.756;2022-08-07T13:51:24;29.30;1.00
3208;DHT22;1616;52.394;9.756;2022-08-07T13:53:53;29.30;1.00
3208;DHT22;1616;52.394;9.756;2022-08-07T13:56:21;29.20;1.00
3208;DHT22;1616;52.394;9.756;2022-08-07T13:58:50;29.20;1.00
3208;DHT22;1616;52.394;9.756;2022-08-07T14:01:44;29.20;1.00
3208;DHT22;1616;52.394;9.756;2022-08-07T14:04:15;29.10;1.00
3208;DHT22;1616;52.394;9.756;2022-08-07T14:06:44;29.00;1.00
3208;DHT22;1616;52.394;9.756;2022-08-07T14:09:22;28.90;1.00
3208;DHT22;1616;52.394;9.756;2022-08-07T14:11:51;28.80;1.00
3208;DHT22;1616;52.394;9.756;2022-08-07T14:14:20;28.80;1.00
3208;DHT22;1616;52.394;9.756;2022-08-07T14:16:49;28.80;1.00
3208;DHT22;1616;52.394;9.756;2022-08-07T14:19:28;28.80;1.00
3208;DHT22;1616;52.394;9.756;2022-08-07T14:21:54;28.80;1.00
3208;DHT22;1616;52.394;9.756;2022-08-07T14:24:28;28.90;1.00
3208;DHT22;1616;52.394;9.756;2022-08-07T14:26:59;29.00;1.00
3208;DHT22;1616;52.394;9.756;2022-08-07T14:29:29;29.20;1.00
3208;DHT22;1616;52.394;9.756;2022-08-07T14:32:04;29.20;1.00
3208;DHT22;1616;52.394;9.756;2022-08-07T14:34:33;29.30;1.00
3208;DHT22;1616;52.394;9.756;2022-08-07T14:37:02;29.40;1.00
3208;DHT22;1616;52.394;9.756;2022-08-07T14:39:36;29.30;1.00
3208;DHT22;1616;52.394;9.756;2022-08-07T14:42:03;29.30;1.00
3208;DHT22;1616;52.394;9.756;2022-08-07T14:44:29;29.20;1.00
3208;DHT22;1616;52.394;9.756;2022-08-07T14:46:57;29.20;1.00
3208;DHT22;1616;52.394;9.756;2022-08-07T14:49:28;29.10;1.00
3208;DHT22;1616;52.394;9.756;2022-08-07T14:51:56;29.00;1.00
3208;DHT22;1616;52.394;9.756;2022-08-07T14:54:23;29.10;1.00
3208;DHT22;1616;52.394;9.756;2022-08-07T14:56:53;29.10;1.00
3208;DHT22;1616;52.394;9.756;2022-08-07T14:59:22;29.20;1.00
3208;DHT22;1616;52.394;9.756;2022-08-07T15:01:48;29.20;1.00
3208;DHT22;1616;52.394;9.756;2022-08-07T15:04:14;29.30;1.00
3208;DHT22;1616;52.394;9.756;2022-08-07T15:06:42;29.20;1.00
3208;DHT22;1616;52.394;9.756;2022-08-07T15:09:12;29.20;1.00
3208;DHT22;1616;52.394;9.756;2022-08-07T15:11:43;29.10;1.00
3208;DHT22;1616;52.394;9.756;2022-08-07T15:14:22;29.20;1.00
3208;DHT22;1616;52.394;9.756;2022-08-07T15:17:10;29.10;1.00
3208;DHT22;1616;52.394;9.756;2022-08-07T15:19:38;29.00;1.00
3208;DHT22;1616;52.394;9.756;2022-08-07T15:22:14;29.00;1.00
3208;DHT22;1616;52.394;9.756;2022-08-07T15:24:41;28.90;1.00
3208;DHT22;1616;52.394;9.756;2022-08-07T15:27:13;28.90;1.00
3208;DHT22;1616;52.394;9.756;2022-08-07T15:29:44;28.80;1.00
3208;DHT22;1616;52.394;9.756;2022-08-07T15:32:10;28.70;1.00
3208;DHT22;1616;52.394;9.756;2022-08-07T15:34:44;28.60;1.00
3208;DHT22;1616;52.394;9.756;2022-08-07T15:37:10;28.60;1.00
3208;DHT22;1616;52.394;9.756;2022-08-07T15:39:39;28.60;1.00
3208;DHT22;1616;52.394;9.756;2022-08-07T15:42:06;28.60;1.00
3208;DHT22;1616;52.394;9.756;2022-08-07T15:44:49;28.50;1.00
3208;DHT22;1616;52.394;9.756;2022-08-07T15:47:16;28.40;1.00
3208;DHT22;1616;52.394;9.756;2022-08-07T15:49:44;28.30;1.00
3208;DHT22;1616;52.394;9.756;2022-08-07T15:52:11;28.20;1.00
3208;DHT22;1616;52.394;9.756;2022-08-07T15:54:39;28.20;1.00
3208;DHT22;1616;52.394;9.756;2022-08-07T15:57:10;28.20;1.00
3208;DHT22;1616;52.394;9.756;2022-08-07T15:59:37;28.20;1.00
3208;DHT22;1616;52.394;9.756;2022-08-07T16:02:05;28.20;1.00
3208;DHT22;1616;52.394;9.756;2022-08-07T16:04:34;28.20;1.00
3208;DHT22;1616;52.394;9.756;2022-08-07T16:07:03;28.10;1.00
3208;DHT22;1616;52.394;9.756;2022-08-07T16:09:49;28.10;1.00
3208;DHT22;1616;52.394;9.756;2022-08-07T16:13:03;28.10;1.00
3208;DHT22;1616;52.394;9.756;2022-08-07T16:15:33;28.00;1.00
3208;DHT22;1616;52.394;9.756;2022-08-07T16:18:18;28.00;1.00
3208;DHT22;1616;52.394;9.756;2022-08-07T16:20:58;27.90;1.00
3208;DHT22;1616;52.394;9.756;2022-08-07T16:23:31;27.80;1.00
3208;DHT22;1616;52.394;9.756;2022-08-07T16:26:04;27.80;1.00
3208;DHT22;1616;52.394;9.756;2022-08-07T16:28:51;27.70;1.00
3208;DHT22;1616;52.394;9.756;2022-08-07T16:34:21;27.60;1.00
3208;DHT22;1616;52.394;9.756;2022-08-07T16:36:53;27.50;1.00
3208;DHT22;1616;52.394;9.756;2022-08-07T16:42:32;27.30;1.00
3208;DHT22;1616;52.394;9.756;2022-08-07T16:48:45;26.90;1.00
3208;DHT22;1616;52.394;9.756;2022-08-07T16:56:39;26.50;1.00
3208;DHT22;1616;52.394;9.756;2022-08-07T16:59:28;26.40;1.00
3208;DHT22;1616;52.394;9.756;2022-08-07T17:02:14;26.30;1.00
3208;DHT22;1616;52.394;9.756;2022-08-07T17:07:51;26.20;1.00
3208;DHT22;1616;52.394;9.756;2022-08-07T17:21:14;25.90;1.00
3208;DHT22;1616;52.394;9.756;2022-08-07T17:30:09;25.60;1.00
3208;DHT22;1616;52.394;9.756;2022-08-07T17:35:20;25.50;1.00
3208;DHT22;1616;52.394;9.756;2022-08-07T17:41:07;25.40;1.00
3208;DHT22;1616;52.394;9.756;2022-08-07T17:43:38;25.30;1.00
3208;DHT22;1616;52.394;9.756;2022-08-07T17:46:18;25.30;1.00
3208;DHT22;1616;52.394;9.756;2022-08-07T17:51:56;25.10;1.00
3208;DHT22;1616;52.394;9.756;2022-08-07T17:54:46;25.10;1.00
3208;DHT22;1616;52.394;9.756;2022-08-07T17:57:21;25.00;1.00
3208;DHT22;1616;52.394;9.756;2022-08-07T17:59:55;24.90;1.00
3208;DHT22;1616;52.394;9.756;2022-08-07T18:02:36;24.90;1.00
3208;DHT22;1616;52.394;9.756;2022-08-07T18:05:13;24.90;1.00
3208;DHT22;1616;52.394;9.756;2022-08-07T18:07:50;24.80;1.00
3208;DHT22;1616;52.394;9.756;2022-08-07T18:18:42;24.70;1.00
3208;DHT22;1616;52.394;9.756;2022-08-07T18:21:16;24.60;1.00
3208;DHT22;1616;52.394;9.756;2022-08-07T18:26:47;24.40;1.00
3208;DHT22;1616;52.394;9.756;2022-08-07T18:29:23;24.30;1.00
3208;DHT22;1616;52.394;9.756;2022-08-07T18:43:44;23.90;1.00
3208;DHT22;1616;52.394;9.756;2022-08-07T18:46:27;23.80;1.00
3208;DHT22;1616;52.394;9.756;2022-08-07T18:54:47;23.50;1.00
3208;DHT22;1616;52.394;9.756;2022-08-07T19:00:17;23.30;1.00
3208;DHT22;1616;52.394;9.756;2022-08-07T19:03:06;23.20;1.00
3208;DHT22;1616;52.394;9.756;2022-08-07T19:05:54;23.10;1.00
3208;DHT22;1616;52.394;9.756;2022-08-07T19:08:48;23.00;1.00
3208;DHT22;1616;52.394;9.756;2022-08-07T19:11:57;23.00;1.00
3208;DHT22;1616;52.394;9.756;2022-08-07T19:17:58;22.80;1.00
3208;DHT22;1616;52.394;9.756;2022-08-07T19:23:25;22.50;1.00
3208;DHT22;1616;52.394;9.756;2022-08-07T19:25:54;22.50;1.00
3208;DHT22;1616;52.394;9.756;2022-08-07T19:28:23;22.40;1.00
3208;DHT22;1616;52.394;9.756;2022-08-07T19:30:54;22.40;1.00
3208;DHT22;1616;52.394;9.756;2022-08-07T19:33:22;22.40;1.00
3208;DHT22;1616;52.394;9.756;2022-08-07T19:35:55;22.40;1.00
3208;DHT22;1616;52.394;9.756;2022-08-07T19:38:25;22.30;1.00
3208;DHT22;1616;52.394;9.756;2022-08-07T19:40:56;22.20;1.00
3208;DHT22;1616;52.394;9.756;2022-08-07T19:43:24;22.10;1.00
3208;DHT22;1616;52.394;9.756;2022-08-07T19:45:54;22.10;1.00
3208;DHT22;1616;52.394;9.756;2022-08-07T19:48:36;22.00;1.00
3208;DHT22;1616;52.394;9.756;2022-08-07T19:51:03;21.90;1.00
3208;DHT22;1616;52.394;9.756;2022-08-07T19:53:30;21.90;1.00
3208;DHT22;1616;52.394;9.756;2022-08-07T19:55:57;21.90;1.00
3208;DHT22;1616;52.394;9.756;2022-08-07T19:58:25;21.80;1.00
3208;DHT22;1616;52.394;9.756;2022-08-07T20:00:55;21.80;1.00
3208;DHT22;1616;52.394;9.756;2022-08-07T20:03:21;21.70;1.00
3208;DHT22;1616;52.394;9.756;2022-08-07T20:05:54;21.60;1.00
3208;DHT22;1616;52.394;9.756;2022-08-07T20:08:27;21.60;1.00
3208;DHT22;1616;52.394;9.756;2022-08-07T20:10:57;21.50;1.00
3208;DHT22;1616;52.394;9.756;2022-08-07T20:13:41;21.50;1.00
3208;DHT22;1616;52.394;9.756;2022-08-07T20:16:11;21.40;1.00
3208;DHT22;1616;52.394;9.756;2022-08-07T20:18:42;21.40;1.00
3208;DHT22;1616;52.394;9.756;2022-08-07T20:21:09;21.30;1.00
3208;DHT22;1616;52.394;9.756;2022-08-07T20:23:35;21.30;1.00